sensor_id;sensor_type;location;lat;lon;timestamp;P1;durP1;ratioP1;P2;durP2;ratioP2
73072;SDS011;61260;51.090;-1.786;2022-08-18T00:02:07;12.40;;;4.50;;
73072;SDS011;61260;51.090;-1.786;2022-08-18T00:04:38;8.00;;;4.50;;
73072;SDS011;61260;51.090;-1.786;2022-08-18T00:07:06;10.10;;;4.40;;
73072;SDS011;61260;51.090;-1.786;2022-08-18T00:09:37;8.90;;;4.30;;
73072;SDS011;61260;51.090;-1.786;2022-08-18T00:12:08;12.30;;;4.70;;
73072;SDS011;61260;51.090;-1.786;2022-08-18T00:14:39;10.80;;;4.20;;
73072;SDS011;61260;51.090;-1.786;2022-08-18T00:17:07;8.50;;;4.30;;
73072;SDS011;61260;51.090;-1.786;2022-08-18T00:19:35;11.20;;;4.80;;
73072;SDS011;61260;51.090;-1.786;2022-08-18T00:22:03;10.80;;;4.20;;
73072;SDS011;61260;51.090;-1.786;2022-08-18T00:24:31;11.00;;;5.00;;
73072;SDS011;61260;51.090;-1.786;2022-08-18T00:26:58;14.70;;;4.70;;
73072;SDS011;61260;51.090;-1.786;2022-08-18T00:29:26;10.40;;;4.20;;
73072;SDS011;61260;51.090;-1.786;2022-08-18T00:31:54;9.40;;;4.00;;
73072;SDS011;61260;51.090;-1.786;2022-08-18T00:34:21;7.50;;;4.20;;
73072;SDS011;61260;51.090;-1.786;2022-08-18T00:36:50;8.90;;;4.60;;
73072;SDS011;61260;51.090;-1.786;2022-08-18T00:39:18;9.60;;;4.50;;
73072;SDS011;61260;51.090;-1.786;2022-08-18T00:41:45;8.90;;;4.50;;
73072;SDS011;61260;51.090;-1.786;2022-08-18T00:44:13;7.80;;;4.00;;
73072;SDS011;61260;51.090;-1.786;2022-08-18T00:46:41;7.70;;;4.10;;
73072;SDS011;61260;51.090;-1.786;2022-08-18T00:49:09;10.30;;;5.30;;
73072;SDS011;61260;51.090;-1.786;2022-08-18T00:51:38;11.50;;;5.40;;
73072;SDS011;61260;51.090;-1.786;2022-08-18T00:54:09;9.30;;;4.70;;
73072;SDS011;61260;51.090;-1.786;2022-08-18T00:56:42;12.40;;;5.20;;
73072;SDS011;61260;51.090;-1.786;2022-08-18T00:59:15;13.30;;;5.40;;
73072;SDS011;61260;51.090;-1.786;2022-08-18T01:01:49;10.50;;;5.00;;
73072;SDS011;61260;51.090;-1.786;2022-08-18T01:04:24;13.10;;;5.60;;
73072;SDS011;61260;51.090;-1.786;2022-08-18T01:06:59;12.50;;;4.80;;
73072;SDS011;61260;51.090;-1.786;2022-08-18T01:09:31;11.80;;;4.80;;
73072;SDS011;61260;51.090;-1.786;2022-08-18T01:11:59;9.40;;;5.20;;
73072;SDS011;61260;51.090;-1.786;2022-08-18T01:14:26;11.00;;;4.70;;
73072;SDS011;61260;51.090;-1.786;2022-08-18T01:16:54;12.90;;;5.60;;
73072;SDS011;61260;51.090;-1.786;2022-08-18T01:19:40;13.40;;;5.80;;
73072;SDS011;61260;51.090;-1.786;2022-08-18T01:22:27;13.60;;;6.00;;
73072;SDS011;61260;51.090;-1.786;2022-08-18T01:25:01;13.20;;;6.20;;
73072;SDS011;61260;51.090;-1.786;2022-08-18T01:27:50;13.20;;;6.00;;
73072;SDS011;61260;51.090;-1.786;2022-08-18T01:30:19;12.60;;;5.70;;
73072;SDS011;61260;51.090;-1.786;2022-08-18T01:32:50;16.70;;;5.80;;
73072;SDS011;61260;51.090;-1.786;2022-08-18T01:35:19;12.90;;;6.10;;
73072;SDS011;61260;51.090;-1.786;2022-08-18T01:37:50;14.60;;;6.20;;
73072;SDS011;61260;51.090;-1.786;2022-08-18T01:40:19;15.00;;;6.60;;
73072;SDS011;61260;51.090;-1.786;2022-08-18T01:42:48;14.30;;;6.10;;
73072;SDS011;61260;51.090;-1.786;2022-08-18T01:45:16;12.10;;;6.20;;
73072;SDS011;61260;51.090;-1.786;2022-08-18T01:47:45;12.10;;;5.90;;
73072;SDS011;61260;51.090;-1.786;2022-08-18T01:50:13;15.60;;;6.50;;
73072;SDS011;61260;51.090;-1.786;2022-08-18T01:52:41;14.00;;;6.00;;
73072;SDS011;61260;51.090;-1.786;2022-08-18T01:55:09;13.70;;;6.70;;
73072;SDS011;61260;51.090;-1.786;2022-08-18T01:57:37;16.10;;;6.90;;
73072;SDS011;61260;51.090;-1.786;2022-08-18T02:00:09;17.00;;;6.60;;
73072;SDS011;61260;51.090;-1.786;2022-08-18T02:02:39;14.00;;;5.90;;
73072;SDS011;61260;51.090;-1.786;2022-08-18T02:05:08;13.90;;;6.50;;
73072;SDS011;61260;51.090;-1.786;2022-08-18T02:07:39;14.30;;;6.20;;
73072;SDS011;61260;51.090;-1.786;2022-08-18T02:10:08;17.60;;;6.50;;
73072;SDS011;61260;51.090;-1.786;2022-08-18T02:12:36;13.80;;;5.60;;
73072;SDS011;61260;51.090;-1.786;2022-08-18T02:15:05;14.10;;;6.00;;
73072;SDS011;61260;51.090;-1.786;2022-08-18T02:17:36;17.90;;;6.50;;
73072;SDS011;61260;51.090;-1.786;2022-08-18T02:20:04;18.30;;;6.20;;
73072;SDS011;61260;51.090;-1.786;2022-08-18T02:22:33;18.20;;;6.40;;
73072;SDS011;61260;51.090;-1.786;2022-08-18T02:25:01;12.80;;;5.70;;
73072;SDS011;61260;51.090;-1.786;2022-08-18T02:27:30;14.90;;;6.50;;
73072;SDS011;61260;51.090;-1.786;2022-08-18T02:30:00;16.60;;;7.00;;
73072;SDS011;61260;51.090;-1.786;2022-08-18T02:32:31;13.00;;;6.00;;
73072;SDS011;61260;51.090;-1.786;2022-08-18T02:34:59;13.40;;;5.70;;
73072;SDS011;61260;51.090;-1.786;2022-08-18T02:37:28;13.30;;;6.10;;
73072;SDS011;61260;51.090;-1.786;2022-08-18T02:39:56;15.10;;;6.30;;
73072;SDS011;61260;51.090;-1.786;2022-08-18T02:42:24;13.60;;;5.80;;
73072;SDS011;61260;51.090;-1.786;2022-08-18T02:44:53;11.80;;;6.40;;
73072;SDS011;61260;51.090;-1.786;2022-08-18T02:47:20;15.70;;;6.30;;
73072;SDS011;61260;51.090;-1.786;2022-08-18T02:49:48;14.20;;;6.20;;
73072;SDS011;61260;51.090;-1.786;2022-08-18T02:52:16;16.50;;;6.20;;
73072;SDS011;61260;51.090;-1.786;2022-08-18T02:54:44;14.20;;;5.80;;
73072;SDS011;61260;51.090;-1.786;2022-08-18T02:57:12;14.50;;;5.60;;
73072;SDS011;61260;51.090;-1.786;2022-08-18T02:59:39;15.80;;;6.20;;
73072;SDS011;61260;51.090;-1.786;2022-08-18T03:02:07;12.20;;;6.30;;
73072;SDS011;61260;51.090;-1.786;2022-08-18T03:04:36;14.00;;;5.80;;
73072;SDS011;61260;51.090;-1.786;2022-08-18T03:07:04;13.30;;;5.60;;
73072;SDS011;61260;51.090;-1.786;2022-08-18T03:09:33;13.80;;;5.60;;
73072;SDS011;61260;51.090;-1.786;2022-08-18T03:12:01;12.00;;;5.30;;
73072;SDS011;61260;51.090;-1.786;2022-08-18T03:14:32;12.20;;;5.30;;
73072;SDS011;61260;51.090;-1.786;2022-08-18T03:17:02;10.50;;;4.70;;
73072;SDS011;61260;51.090;-1.786;2022-08-18T03:19:31;11.80;;;5.70;;
73072;SDS011;61260;51.090;-1.786;2022-08-18T03:21:59;17.30;;;6.70;;
73072;SDS011;61260;51.090;-1.786;2022-08-18T03:24:27;14.50;;;5.50;;
73072;SDS011;61260;51.090;-1.786;2022-08-18T03:26:56;12.60;;;5.00;;
73072;SDS011;61260;51.090;-1.786;2022-08-18T03:29:24;14.00;;;6.10;;
73072;SDS011;61260;51.090;-1.786;2022-08-18T03:31:51;15.90;;;5.70;;
73072;SDS011;61260;51.090;-1.786;2022-08-18T03:34:19;10.70;;;5.50;;
73072;SDS011;61260;51.090;-1.786;2022-08-18T03:36:47;13.80;;;5.50;;
73072;SDS011;61260;51.090;-1.786;2022-08-18T03:39:17;13.80;;;5.60;;
73072;SDS011;61260;51.090;-1.786;2022-08-18T03:41:47;13.50;;;5.10;;
73072;SDS011;61260;51.090;-1.786;2022-08-18T03:44:20;12.90;;;5.50;;
73072;SDS011;61260;51.090;-1.786;2022-08-18T03:46:48;11.00;;;5.60;;
73072;SDS011;61260;51.090;-1.786;2022-08-18T03:49:17;13.20;;;5.50;;
73072;SDS011;61260;51.090;-1.786;2022-08-18T03:51:45;14.20;;;5.70;;
73072;SDS011;61260;51.090;-1.786;2022-08-18T03:54:14;11.20;;;5.60;;
73072;SDS011;61260;51.090;-1.786;2022-08-18T03:56:43;14.40;;;5.40;;
73072;SDS011;61260;51.090;-1.786;2022-08-18T03:59:13;12.20;;;5.20;;
73072;SDS011;61260;51.090;-1.786;2022-08-18T04:01:43;16.50;;;6.00;;
73072;SDS011;61260;51.090;-1.786;2022-08-18T04:04:12;15.30;;;5.80;;
73072;SDS011;61260;51.090;-1.786;2022-08-18T04:06:45;13.20;;;5.80;;
73072;SDS011;61260;51.090;-1.786;2022-08-18T04:09:15;12.50;;;5.90;;
73072;SDS011;61260;51.090;-1.786;2022-08-18T04:11:44;12.20;;;5.20;;
73072;SDS011;61260;51.090;-1.786;2022-08-18T04:14:12;15.50;;;6.00;;
73072;SDS011;61260;51.090;-1.786;2022-08-18T04:16:43;13.50;;;5.90;;
73072;SDS011;61260;51.090;-1.786;2022-08-18T04:19:14;15.80;;;5.50;;
73072;SDS011;61260;51.090;-1.786;2022-08-18T04:21:42;15.30;;;5.60;;
73072;SDS011;61260;51.090;-1.786;2022-08-18T04:24:11;11.20;;;5.40;;
73072;SDS011;61260;51.090;-1.786;2022-08-18T04:26:41;13.70;;;5.90;;
73072;SDS011;61260;51.090;-1.786;2022-08-18T04:29:11;17.90;;;5.60;;
73072;SDS011;61260;51.090;-1.786;2022-08-18T04:31:40;14.00;;;5.60;;
73072;SDS011;61260;51.090;-1.786;2022-08-18T04:34:07;11.30;;;5.10;;
73072;SDS011;61260;51.090;-1.786;2022-08-18T04:36:36;14.90;;;5.50;;
73072;SDS011;61260;51.090;-1.786;2022-08-18T04:39:05;12.60;;;5.60;;
73072;SDS011;61260;51.090;-1.786;2022-08-18T04:41:34;13.70;;;5.60;;
73072;SDS011;61260;51.090;-1.786;2022-08-18T04:44:04;17.10;;;6.40;;
73072;SDS011;61260;51.090;-1.786;2022-08-18T04:46:34;13.60;;;6.10;;
73072;SDS011;61260;51.090;-1.786;2022-08-18T04:49:04;13.60;;;6.50;;
73072;SDS011;61260;51.090;-1.786;2022-08-18T04:51:34;14.20;;;6.30;;
73072;SDS011;61260;51.090;-1.786;2022-08-18T04:54:02;13.90;;;5.80;;
73072;SDS011;61260;51.090;-1.786;2022-08-18T04:56:31;14.70;;;6.00;;
73072;SDS011;61260;51.090;-1.786;2022-08-18T04:59:03;15.70;;;6.40;;
73072;SDS011;61260;51.090;-1.786;2022-08-18T05:01:34;19.90;;;6.40;;
73072;SDS011;61260;51.090;-1.786;2022-08-18T05:04:03;13.10;;;6.20;;
73072;SDS011;61260;51.090;-1.786;2022-08-18T05:06:32;20.60;;;7.00;;
73072;SDS011;61260;51.090;-1.786;2022-08-18T05:09:01;21.10;;;6.30;;
73072;SDS011;61260;51.090;-1.786;2022-08-18T05:11:32;16.50;;;6.50;;
73072;SDS011;61260;51.090;-1.786;2022-08-18T05:14:00;15.80;;;6.70;;
73072;SDS011;61260;51.090;-1.786;2022-08-18T05:16:30;18.60;;;6.60;;
73072;SDS011;61260;51.090;-1.786;2022-08-18T05:19:01;17.50;;;6.80;;
73072;SDS011;61260;51.090;-1.786;2022-08-18T05:21:33;16.50;;;7.40;;
73072;SDS011;61260;51.090;-1.786;2022-08-18T05:24:02;16.80;;;6.70;;
73072;SDS011;61260;51.090;-1.786;2022-08-18T05:26:33;17.90;;;7.00;;
73072;SDS011;61260;51.090;-1.786;2022-08-18T05:29:01;16.00;;;6.50;;
73072;SDS011;61260;51.090;-1.786;2022-08-18T05:31:29;22.00;;;7.50;;
73072;SDS011;61260;51.090;-1.786;2022-08-18T05:33:59;17.80;;;7.30;;
73072;SDS011;61260;51.090;-1.786;2022-08-18T05:36:33;16.50;;;6.60;;
73072;SDS011;61260;51.090;-1.786;2022-08-18T05:39:20;17.20;;;6.90;;
73072;SDS011;61260;51.090;-1.786;2022-08-18T05:41:51;16.90;;;6.10;;
73072;SDS011;61260;51.090;-1.786;2022-08-18T05:44:23;22.20;;;7.60;;
73072;SDS011;61260;51.090;-1.786;2022-08-18T05:46:53;13.60;;;6.50;;
73072;SDS011;61260;51.090;-1.786;2022-08-18T05:49:23;19.70;;;7.50;;
73072;SDS011;61260;51.090;-1.786;2022-08-18T05:51:53;13.50;;;6.30;;
73072;SDS011;61260;51.090;-1.786;2022-08-18T05:54:24;16.40;;;6.80;;
73072;SDS011;61260;51.090;-1.786;2022-08-18T05:57:20;15.70;;;6.80;;
73072;SDS011;61260;51.090;-1.786;2022-08-18T05:59:49;14.30;;;7.00;;
73072;SDS011;61260;51.090;-1.786;2022-08-18T06:02:23;17.50;;;7.30;;
73072;SDS011;61260;51.090;-1.786;2022-08-18T06:04:57;16.80;;;6.80;;
73072;SDS011;61260;51.090;-1.786;2022-08-18T06:07:31;22.00;;;7.50;;
73072;SDS011;61260;51.090;-1.786;2022-08-18T06:10:02;18.00;;;7.20;;
73072;SDS011;61260;51.090;-1.786;2022-08-18T06:12:34;15.80;;;7.60;;
73072;SDS011;61260;51.090;-1.786;2022-08-18T06:15:09;17.30;;;7.00;;
73072;SDS011;61260;51.090;-1.786;2022-08-18T06:18:01;18.60;;;8.00;;
73072;SDS011;61260;51.090;-1.786;2022-08-18T06:20:48;20.00;;;7.10;;
73072;SDS011;61260;51.090;-1.786;2022-08-18T06:23:30;18.00;;;7.20;;
73072;SDS011;61260;51.090;-1.786;2022-08-18T06:26:08;22.10;;;8.30;;
73072;SDS011;61260;51.090;-1.786;2022-08-18T06:28:47;19.40;;;7.80;;
73072;SDS011;61260;51.090;-1.786;2022-08-18T06:31:29;24.10;;;8.50;;
73072;SDS011;61260;51.090;-1.786;2022-08-18T06:34:07;22.80;;;8.40;;
73072;SDS011;61260;51.090;-1.786;2022-08-18T06:36:50;25.10;;;8.70;;
73072;SDS011;61260;51.090;-1.786;2022-08-18T06:39:21;18.00;;;8.10;;
73072;SDS011;61260;51.090;-1.786;2022-08-18T06:41:54;23.20;;;8.30;;
73072;SDS011;61260;51.090;-1.786;2022-08-18T06:44:24;23.20;;;8.60;;
73072;SDS011;61260;51.090;-1.786;2022-08-18T06:46:57;26.20;;;8.50;;
73072;SDS011;61260;51.090;-1.786;2022-08-18T06:49:36;23.30;;;8.70;;
73072;SDS011;61260;51.090;-1.786;2022-08-18T06:52:18;22.60;;;8.50;;
73072;SDS011;61260;51.090;-1.786;2022-08-18T06:54:50;21.20;;;8.40;;
73072;SDS011;61260;51.090;-1.786;2022-08-18T06:57:27;22.20;;;8.40;;
73072;SDS011;61260;51.090;-1.786;2022-08-18T06:59:58;25.10;;;8.40;;
73072;SDS011;61260;51.090;-1.786;2022-08-18T07:02:41;24.00;;;9.10;;
73072;SDS011;61260;51.090;-1.786;2022-08-18T07:05:18;21.20;;;8.10;;
73072;SDS011;61260;51.090;-1.786;2022-08-18T07:08:00;25.50;;;8.30;;
73072;SDS011;61260;51.090;-1.786;2022-08-18T07:10:37;29.00;;;9.60;;
73072;SDS011;61260;51.090;-1.786;2022-08-18T07:13:17;18.20;;;8.80;;
73072;SDS011;61260;51.090;-1.786;2022-08-18T07:15:47;21.10;;;8.20;;
73072;SDS011;61260;51.090;-1.786;2022-08-18T07:18:20;19.40;;;8.60;;
73072;SDS011;61260;51.090;-1.786;2022-08-18T07:20:50;19.80;;;8.00;;
73072;SDS011;61260;51.090;-1.786;2022-08-18T07:23:27;20.30;;;8.30;;
73072;SDS011;61260;51.090;-1.786;2022-08-18T07:26:03;26.00;;;8.90;;
73072;SDS011;61260;51.090;-1.786;2022-08-18T07:28:35;21.50;;;8.20;;
73072;SDS011;61260;51.090;-1.786;2022-08-18T07:31:10;18.50;;;8.40;;
73072;SDS011;61260;51.090;-1.786;2022-08-18T07:33:47;20.40;;;7.60;;
73072;SDS011;61260;51.090;-1.786;2022-08-18T07:36:23;20.50;;;9.00;;
73072;SDS011;61260;51.090;-1.786;2022-08-18T07:39:13;24.90;;;9.10;;
73072;SDS011;61260;51.090;-1.786;2022-08-18T07:41:47;20.80;;;10.00;;
73072;SDS011;61260;51.090;-1.786;2022-08-18T07:44:19;20.90;;;8.70;;
73072;SDS011;61260;51.090;-1.786;2022-08-18T07:46:53;21.20;;;9.00;;
73072;SDS011;61260;51.090;-1.786;2022-08-18T07:49:25;21.10;;;8.50;;
73072;SDS011;61260;51.090;-1.786;2022-08-18T07:52:01;18.20;;;8.10;;
73072;SDS011;61260;51.090;-1.786;2022-08-18T07:54:44;16.50;;;8.00;;
73072;SDS011;61260;51.090;-1.786;2022-08-18T07:57:22;21.50;;;8.50;;
73072;SDS011;61260;51.090;-1.786;2022-08-18T08:00:04;19.20;;;8.80;;
73072;SDS011;61260;51.090;-1.786;2022-08-18T08:02:39;20.00;;;8.80;;
73072;SDS011;61260;51.090;-1.786;2022-08-18T08:05:19;18.30;;;8.90;;
73072;SDS011;61260;51.090;-1.786;2022-08-18T08:07:57;17.30;;;8.30;;
73072;SDS011;61260;51.090;-1.786;2022-08-18T08:10:31;19.60;;;8.50;;
73072;SDS011;61260;51.090;-1.786;2022-08-18T08:13:11;19.80;;;9.50;;
73072;SDS011;61260;51.090;-1.786;2022-08-18T08:15:50;17.40;;;8.60;;
73072;SDS011;61260;51.090;-1.786;2022-08-18T08:18:28;18.70;;;7.90;;
73072;SDS011;61260;51.090;-1.786;2022-08-18T08:21:07;19.10;;;8.40;;
73072;SDS011;61260;51.090;-1.786;2022-08-18T08:23:40;17.80;;;7.50;;
73072;SDS011;61260;51.090;-1.786;2022-08-18T08:26:20;16.40;;;8.00;;
73072;SDS011;61260;51.090;-1.786;2022-08-18T08:31:47;15.30;;;7.80;;
73072;SDS011;61260;51.090;-1.786;2022-08-18T08:34:19;13.30;;;7.60;;
73072;SDS011;61260;51.090;-1.786;2022-08-18T08:36:52;17.00;;;8.70;;
73072;SDS011;61260;51.090;-1.786;2022-08-18T08:39:30;16.80;;;8.50;;
73072;SDS011;61260;51.090;-1.786;2022-08-18T08:42:05;16.40;;;8.70;;
73072;SDS011;61260;51.090;-1.786;2022-08-18T08:44:37;17.90;;;8.20;;
73072;SDS011;61260;51.090;-1.786;2022-08-18T08:47:13;15.00;;;7.70;;
73072;SDS011;61260;51.090;-1.786;2022-08-18T08:49:44;17.70;;;9.80;;
73072;SDS011;61260;51.090;-1.786;2022-08-18T08:52:17;19.20;;;9.60;;
73072;SDS011;61260;51.090;-1.786;2022-08-18T08:54:50;18.20;;;9.60;;
73072;SDS011;61260;51.090;-1.786;2022-08-18T08:57:25;17.00;;;9.40;;
73072;SDS011;61260;51.090;-1.786;2022-08-18T08:59:57;15.50;;;8.70;;
73072;SDS011;61260;51.090;-1.786;2022-08-18T09:02:39;23.00;;;12.50;;
73072;SDS011;61260;51.090;-1.786;2022-08-18T09:05:24;20.90;;;10.20;;
73072;SDS011;61260;51.090;-1.786;2022-08-18T09:10:55;14.90;;;7.80;;
73072;SDS011;61260;51.090;-1.786;2022-08-18T09:13:46;11.40;;;6.50;;
73072;SDS011;61260;51.090;-1.786;2022-08-18T09:16:32;13.20;;;6.90;;
73072;SDS011;61260;51.090;-1.786;2022-08-18T09:19:13;12.20;;;6.30;;
73072;SDS011;61260;51.090;-1.786;2022-08-18T09:21:57;13.20;;;7.40;;
73072;SDS011;61260;51.090;-1.786;2022-08-18T09:24:31;12.60;;;7.20;;
73072;SDS011;61260;51.090;-1.786;2022-08-18T09:27:13;12.40;;;6.50;;
73072;SDS011;61260;51.090;-1.786;2022-08-18T09:29:52;12.90;;;7.10;;
73072;SDS011;61260;51.090;-1.786;2022-08-18T09:35:32;9.70;;;5.60;;
73072;SDS011;61260;51.090;-1.786;2022-08-18T09:38:08;10.60;;;6.00;;
73072;SDS011;61260;51.090;-1.786;2022-08-18T09:41:03;11.40;;;5.90;;
73072;SDS011;61260;51.090;-1.786;2022-08-18T09:43:54;10.20;;;5.40;;
73072;SDS011;61260;51.090;-1.786;2022-08-18T09:46:54;9.90;;;6.40;;
73072;SDS011;61260;51.090;-1.786;2022-08-18T09:55:41;9.30;;;5.90;;
73072;SDS011;61260;51.090;-1.786;2022-08-18T09:58:26;8.30;;;5.30;;
73072;SDS011;61260;51.090;-1.786;2022-08-18T10:01:19;6.50;;;4.30;;
73072;SDS011;61260;51.090;-1.786;2022-08-18T10:07:14;7.30;;;4.30;;
73072;SDS011;61260;51.090;-1.786;2022-08-18T10:10:00;7.90;;;4.40;;
73072;SDS011;61260;51.090;-1.786;2022-08-18T10:12:43;6.80;;;4.10;;
73072;SDS011;61260;51.090;-1.786;2022-08-18T10:15:39;7.40;;;4.60;;
73072;SDS011;61260;51.090;-1.786;2022-08-18T10:21:10;7.90;;;4.10;;
73072;SDS011;61260;51.090;-1.786;2022-08-18T10:23:47;7.50;;;3.70;;
73072;SDS011;61260;51.090;-1.786;2022-08-18T10:29:09;5.60;;;4.00;;
73072;SDS011;61260;51.090;-1.786;2022-08-18T10:32:17;7.80;;;4.50;;
73072;SDS011;61260;51.090;-1.786;2022-08-18T10:34:50;7.10;;;4.00;;
73072;SDS011;61260;51.090;-1.786;2022-08-18T10:37:18;6.00;;;3.30;;
73072;SDS011;61260;51.090;-1.786;2022-08-18T10:39:51;7.00;;;3.60;;
73072;SDS011;61260;51.090;-1.786;2022-08-18T10:42:22;5.10;;;3.50;;
73072;SDS011;61260;51.090;-1.786;2022-08-18T10:44:54;5.50;;;3.30;;
73072;SDS011;61260;51.090;-1.786;2022-08-18T10:47:31;4.70;;;3.40;;
73072;SDS011;61260;51.090;-1.786;2022-08-18T10:50:00;4.90;;;3.30;;
73072;SDS011;61260;51.090;-1.786;2022-08-18T10:52:40;4.20;;;3.00;;
73072;SDS011;61260;51.090;-1.786;2022-08-18T10:55:35;3.70;;;2.80;;
73072;SDS011;61260;51.090;-1.786;2022-08-18T10:58:29;4.70;;;2.80;;
73072;SDS011;61260;51.090;-1.786;2022-08-18T11:01:06;6.10;;;3.50;;
73072;SDS011;61260;51.090;-1.786;2022-08-18T11:03:58;4.00;;;2.80;;
73072;SDS011;61260;51.090;-1.786;2022-08-18T11:06:35;4.30;;;2.80;;
73072;SDS011;61260;51.090;-1.786;2022-08-18T11:09:07;6.10;;;3.60;;
73072;SDS011;61260;51.090;-1.786;2022-08-18T11:11:37;5.30;;;2.80;;
73072;SDS011;61260;51.090;-1.786;2022-08-18T11:14:22;5.10;;;3.10;;
73072;SDS011;61260;51.090;-1.786;2022-08-18T11:19:36;4.60;;;2.50;;
73072;SDS011;61260;51.090;-1.786;2022-08-18T11:22:05;4.20;;;2.60;;
73072;SDS011;61260;51.090;-1.786;2022-08-18T11:24:48;3.60;;;2.70;;
73072;SDS011;61260;51.090;-1.786;2022-08-18T11:27:18;3.30;;;2.80;;
73072;SDS011;61260;51.090;-1.786;2022-08-18T11:29:47;5.00;;;2.90;;
73072;SDS011;61260;51.090;-1.786;2022-08-18T11:32:17;3.30;;;2.30;;
73072;SDS011;61260;51.090;-1.786;2022-08-18T11:34:51;3.90;;;2.90;;
73072;SDS011;61260;51.090;-1.786;2022-08-18T11:37:26;3.70;;;2.50;;
73072;SDS011;61260;51.090;-1.786;2022-08-18T11:39:59;3.00;;;2.50;;
73072;SDS011;61260;51.090;-1.786;2022-08-18T11:42:29;3.20;;;2.50;;
73072;SDS011;61260;51.090;-1.786;2022-08-18T11:45:03;4.20;;;2.50;;
73072;SDS011;61260;51.090;-1.786;2022-08-18T11:47:35;2.40;;;1.90;;
73072;SDS011;61260;51.090;-1.786;2022-08-18T11:50:08;2.10;;;1.60;;
73072;SDS011;61260;51.090;-1.786;2022-08-18T11:52:48;3.40;;;1.80;;
73072;SDS011;61260;51.090;-1.786;2022-08-18T11:55:18;2.40;;;1.60;;
73072;SDS011;61260;51.090;-1.786;2022-08-18T11:57:53;1.50;;;1.00;;
73072;SDS011;61260;51.090;-1.786;2022-08-18T12:00:35;1.80;;;1.30;;
73072;SDS011;61260;51.090;-1.786;2022-08-18T12:03:09;1.90;;;1.30;;
73072;SDS011;61260;51.090;-1.786;2022-08-18T12:05:47;1.30;;;1.20;;
73072;SDS011;61260;51.090;-1.786;2022-08-18T12:08:19;2.10;;;1.20;;
73072;SDS011;61260;51.090;-1.786;2022-08-18T12:10:59;1.40;;;1.30;;
73072;SDS011;61260;51.090;-1.786;2022-08-18T12:13:29;1.40;;;1.10;;
73072;SDS011;61260;51.090;-1.786;2022-08-18T12:16:11;2.50;;;1.10;;
73072;SDS011;61260;51.090;-1.786;2022-08-18T12:18:41;2.40;;;1.30;;
73072;SDS011;61260;51.090;-1.786;2022-08-18T12:21:09;1.30;;;1.10;;
73072;SDS011;61260;51.090;-1.786;2022-08-18T12:23:38;1.40;;;1.30;;
73072;SDS011;61260;51.090;-1.786;2022-08-18T12:26:07;1.80;;;1.50;;
73072;SDS011;61260;51.090;-1.786;2022-08-18T12:28:35;1.80;;;1.40;;
73072;SDS011;61260;51.090;-1.786;2022-08-18T12:31:05;2.00;;;1.50;;
73072;SDS011;61260;51.090;-1.786;2022-08-18T12:33:33;2.10;;;1.90;;
73072;SDS011;61260;51.090;-1.786;2022-08-18T12:36:02;2.70;;;2.20;;
73072;SDS011;61260;51.090;-1.786;2022-08-18T12:38:31;2.30;;;1.80;;
73072;SDS011;61260;51.090;-1.786;2022-08-18T12:40:59;2.40;;;1.70;;
73072;SDS011;61260;51.090;-1.786;2022-08-18T12:43:27;2.60;;;1.50;;
73072;SDS011;61260;51.090;-1.786;2022-08-18T12:45:56;2.20;;;1.70;;
73072;SDS011;61260;51.090;-1.786;2022-08-18T12:48:25;2.00;;;1.40;;
73072;SDS011;61260;51.090;-1.786;2022-08-18T12:50:56;2.90;;;1.80;;
73072;SDS011;61260;51.090;-1.786;2022-08-18T12:53:24;3.30;;;1.50;;
73072;SDS011;61260;51.090;-1.786;2022-08-18T12:55:52;2.30;;;1.60;;
73072;SDS011;61260;51.090;-1.786;2022-08-18T12:58:19;3.00;;;2.00;;
73072;SDS011;61260;51.090;-1.786;2022-08-18T13:00:47;3.30;;;1.90;;
73072;SDS011;61260;51.090;-1.786;2022-08-18T13:03:14;1.80;;;1.60;;
73072;SDS011;61260;51.090;-1.786;2022-08-18T13:05:44;3.60;;;1.70;;
73072;SDS011;61260;51.090;-1.786;2022-08-18T13:08:12;2.20;;;1.40;;
73072;SDS011;61260;51.090;-1.786;2022-08-18T13:10:43;2.60;;;1.60;;
73072;SDS011;61260;51.090;-1.786;2022-08-18T13:13:11;1.90;;;1.60;;
73072;SDS011;61260;51.090;-1.786;2022-08-18T13:15:38;1.60;;;1.50;;
73072;SDS011;61260;51.090;-1.786;2022-08-18T13:18:06;2.50;;;1.90;;
73072;SDS011;61260;51.090;-1.786;2022-08-18T13:20:34;2.60;;;1.60;;
73072;SDS011;61260;51.090;-1.786;2022-08-18T13:23:01;1.60;;;1.20;;
73072;SDS011;61260;51.090;-1.786;2022-08-18T13:25:29;3.40;;;1.30;;
73072;SDS011;61260;51.090;-1.786;2022-08-18T13:27:57;3.00;;;1.40;;
73072;SDS011;61260;51.090;-1.786;2022-08-18T13:30:25;1.60;;;1.40;;
73072;SDS011;61260;51.090;-1.786;2022-08-18T13:32:53;2.00;;;1.60;;
73072;SDS011;61260;51.090;-1.786;2022-08-18T13:35:20;1.70;;;1.20;;
73072;SDS011;61260;51.090;-1.786;2022-08-18T13:37:48;2.60;;;1.50;;
73072;SDS011;61260;51.090;-1.786;2022-08-18T13:40:16;1.70;;;1.40;;
73072;SDS011;61260;51.090;-1.786;2022-08-18T13:42:45;1.50;;;1.10;;
73072;SDS011;61260;51.090;-1.786;2022-08-18T13:45:15;1.50;;;1.40;;
73072;SDS011;61260;51.090;-1.786;2022-08-18T13:47:44;2.40;;;1.50;;
73072;SDS011;61260;51.090;-1.786;2022-08-18T13:50:14;2.60;;;1.50;;
73072;SDS011;61260;51.090;-1.786;2022-08-18T13:52:42;1.60;;;1.40;;
73072;SDS011;61260;51.090;-1.786;2022-08-18T13:55:11;3.80;;;1.50;;
73072;SDS011;61260;51.090;-1.786;2022-08-18T13:57:40;2.10;;;1.70;;
73072;SDS011;61260;51.090;-1.786;2022-08-18T14:00:14;2.60;;;1.50;;
73072;SDS011;61260;51.090;-1.786;2022-08-18T14:02:45;2.20;;;1.60;;
73072;SDS011;61260;51.090;-1.786;2022-08-18T14:05:13;2.00;;;1.60;;
73072;SDS011;61260;51.090;-1.786;2022-08-18T14:07:41;2.00;;;1.50;;
73072;SDS011;61260;51.090;-1.786;2022-08-18T14:10:09;2.90;;;1.90;;
73072;SDS011;61260;51.090;-1.786;2022-08-18T14:12:38;2.10;;;1.90;;
73072;SDS011;61260;51.090;-1.786;2022-08-18T14:15:09;3.20;;;2.30;;
73072;SDS011;61260;51.090;-1.786;2022-08-18T14:17:38;4.10;;;2.20;;
73072;SDS011;61260;51.090;-1.786;2022-08-18T14:23:47;2.50;;;2.00;;
73072;SDS011;61260;51.090;-1.786;2022-08-18T14:26:32;2.50;;;1.80;;
73072;SDS011;61260;51.090;-1.786;2022-08-18T14:29:16;2.70;;;1.70;;
73072;SDS011;61260;51.090;-1.786;2022-08-18T14:31:44;3.20;;;2.10;;
73072;SDS011;61260;51.090;-1.786;2022-08-18T14:34:11;1.60;;;1.50;;
73072;SDS011;61260;51.090;-1.786;2022-08-18T14:36:39;2.30;;;1.90;;
73072;SDS011;61260;51.090;-1.786;2022-08-18T14:39:07;2.80;;;1.80;;
73072;SDS011;61260;51.090;-1.786;2022-08-18T14:41:34;3.80;;;2.00;;
73072;SDS011;61260;51.090;-1.786;2022-08-18T14:44:03;2.70;;;1.60;;
73072;SDS011;61260;51.090;-1.786;2022-08-18T14:46:30;2.40;;;2.10;;
73072;SDS011;61260;51.090;-1.786;2022-08-18T14:48:58;2.80;;;2.00;;
73072;SDS011;61260;51.090;-1.786;2022-08-18T14:51:25;2.60;;;1.90;;
73072;SDS011;61260;51.090;-1.786;2022-08-18T14:53:53;3.40;;;1.90;;
73072;SDS011;61260;51.090;-1.786;2022-08-18T14:56:21;2.10;;;1.90;;
73072;SDS011;61260;51.090;-1.786;2022-08-18T14:58:48;2.50;;;1.70;;
73072;SDS011;61260;51.090;-1.786;2022-08-18T15:01:16;2.30;;;2.10;;
73072;SDS011;61260;51.090;-1.786;2022-08-18T15:03:43;3.30;;;2.10;;
73072;SDS011;61260;51.090;-1.786;2022-08-18T15:06:11;2.20;;;2.00;;
73072;SDS011;61260;51.090;-1.786;2022-08-18T15:08:38;2.70;;;1.90;;
73072;SDS011;61260;51.090;-1.786;2022-08-18T15:11:06;2.90;;;1.80;;
73072;SDS011;61260;51.090;-1.786;2022-08-18T15:13:35;2.00;;;1.80;;
73072;SDS011;61260;51.090;-1.786;2022-08-18T15:16:05;2.40;;;2.20;;
73072;SDS011;61260;51.090;-1.786;2022-08-18T15:18:38;3.40;;;2.30;;
73072;SDS011;61260;51.090;-1.786;2022-08-18T15:21:06;2.50;;;2.20;;
73072;SDS011;61260;51.090;-1.786;2022-08-18T15:23:52;2.90;;;2.30;;
73072;SDS011;61260;51.090;-1.786;2022-08-18T15:26:38;2.90;;;2.00;;
73072;SDS011;61260;51.090;-1.786;2022-08-18T15:29:07;2.30;;;1.90;;